createdAt,value
2023-07-03T00:00:52.201Z,9.00
2023-07-03T00:05:54.008Z,8.75
2023-07-03T00:11:02.654Z,8.68
2023-07-03T00:16:05.102Z,8.63
2023-07-03T00:21:06.864Z,8.95
2023-07-03T00:26:08.494Z,8.68
2023-07-03T00:31:10.172Z,9.10
2023-07-03T00:36:11.837Z,9.13
2023-07-03T00:41:13.542Z,9.20
2023-07-03T00:46:15.285Z,9.07
2023-07-03T00:51:17.321Z,9.15
2023-07-03T00:56:19.800Z,8.73
2023-07-03T01:01:39.732Z,8.30
2023-07-03T01:07:06.773Z,9.25
2023-07-03T01:12:08.931Z,9.10
2023-07-03T01:17:11.044Z,8.60
2023-07-03T01:22:32.449Z,9.00
2023-07-03T01:27:36.641Z,9.25
2023-07-03T01:32:40.502Z,9.70
2023-07-03T01:37:47.892Z,8.73
2023-07-03T01:42:49.560Z,9.40
2023-07-03T01:47:51.267Z,8.32
2023-07-03T01:53:03.508Z,9.27
2023-07-03T01:58:18.922Z,9.18
2023-07-03T02:03:26.007Z,9.05
2023-07-03T02:08:28.801Z,9.60
2023-07-03T02:13:30.441Z,9.23
2023-07-03T02:18:35.268Z,8.95
2023-07-03T02:23:37.163Z,9.27
2023-07-03T02:28:38.891Z,10.02
2023-07-03T02:33:40.955Z,9.50
2023-07-03T02:38:42.571Z,8.63
2023-07-03T02:43:44.303Z,9.52
2023-07-03T02:48:46.631Z,9.25
2023-07-03T02:53:48.692Z,8.82
2023-07-03T02:58:51.752Z,9.25
2023-07-03T03:03:59.788Z,9.52
2023-07-03T03:09:02.091Z,9.85
2023-07-03T03:14:06.989Z,8.80
2023-07-03T03:19:09.685Z,8.82
2023-07-03T03:24:11.385Z,9.50
2023-07-03T03:29:13.009Z,9.02
2023-07-03T03:34:16.576Z,9.13
2023-07-03T03:39:18.235Z,8.30
2023-07-03T03:44:20.223Z,9.05
2023-07-03T03:49:23.099Z,9.18
2023-07-03T03:54:27.515Z,8.88
2023-07-03T03:59:29.473Z,10.05
2023-07-03T04:04:33.408Z,9.63
2023-07-03T04:09:35.158Z,9.00
2023-07-03T04:14:39.126Z,9.15
2023-07-03T04:19:40.823Z,9.20
2023-07-03T04:24:42.434Z,9.23
2023-07-03T04:29:44.125Z,9.75
2023-07-03T04:34:45.751Z,9.38
2023-07-03T04:39:47.398Z,10.90
2023-07-03T04:44:50.094Z,9.88
2023-07-03T04:49:56.418Z,9.52
2023-07-03T04:54:58.170Z,9.48
2023-07-03T05:00:01.650Z,9.43
2023-07-03T05:05:03.401Z,9.68
2023-07-03T05:10:06.627Z,10.00
2023-07-03T05:15:09.622Z,10.30
2023-07-03T05:20:15.981Z,10.23
2023-07-03T05:25:17.882Z,9.75
2023-07-03T05:30:19.650Z,10.07
2023-07-03T05:35:21.382Z,9.80
2023-07-03T05:40:23.218Z,9.32
2023-07-03T05:45:25.175Z,9.50
2023-07-03T05:50:26.775Z,9.15
2023-07-03T05:55:28.381Z,9.32
2023-07-03T06:00:32.056Z,9.45
2023-07-03T06:05:33.779Z,9.45
2023-07-03T06:10:35.462Z,9.23
2023-07-03T06:15:37.164Z,9.10
2023-07-03T06:20:39.119Z,9.30
2023-07-03T06:25:41.465Z,9.15
2023-07-03T06:30:51.343Z,9.05
2023-07-03T06:35:53.391Z,8.85
2023-07-03T06:41:01.560Z,8.75
2023-07-03T06:46:03.187Z,8.35
2023-07-03T06:51:06.614Z,8.20
2023-07-03T06:56:09.139Z,7.40
2023-07-03T07:01:13.493Z,7.90
2023-07-03T07:06:22.541Z,7.35
2023-07-03T07:11:29.531Z,7.80
2023-07-03T07:16:35.960Z,6.40
2023-07-03T07:21:39.566Z,7.03
2023-07-03T07:26:41.338Z,6.90
2023-07-03T07:31:43.220Z,7.15
2023-07-03T07:36:45.802Z,7.25
2023-07-03T07:41:47.927Z,6.72
2023-07-03T07:46:49.591Z,6.68
2023-07-03T07:51:51.399Z,6.70
2023-07-03T07:56:52.997Z,5.63
2023-07-03T08:01:54.626Z,5.60
2023-07-03T08:06:56.281Z,6.03
2023-07-03T08:11:57.996Z,5.97
2023-07-03T08:16:59.754Z,6.47
2023-07-03T08:22:01.437Z,6.47
2023-07-03T08:27:03.126Z,6.30
2023-07-03T08:32:10.365Z,5.65
2023-07-03T08:37:12.091Z,6.30
2023-07-03T08:42:24.979Z,5.60
2023-07-03T08:47:29.299Z,5.47
2023-07-03T08:52:46.334Z,6.10
2023-07-03T08:57:47.994Z,5.32
2023-07-03T09:03:09.105Z,5.00
2023-07-03T09:08:21.466Z,5.88
2023-07-03T09:13:33.946Z,5.50
2023-07-03T09:18:38.886Z,5.28
2023-07-03T09:23:54.968Z,5.25
2023-07-03T09:28:59.445Z,4.97
2023-07-03T09:34:01.085Z,5.97
2023-07-03T09:39:08.389Z,5.30
2023-07-03T09:44:14.145Z,5.68
2023-07-03T09:49:24.077Z,5.70
2023-07-03T09:54:31.097Z,5.30
2023-07-03T09:59:33.012Z,5.30
2023-07-03T10:15:00.828Z,5.50
2023-07-03T10:20:05.950Z,5.78
2023-07-03T10:25:10.882Z,5.47
2023-07-03T10:30:16.548Z,5.57
2023-07-03T10:35:25.853Z,5.07
2023-07-03T10:41:00.721Z,5.85
2023-07-03T10:46:03.847Z,5.60
2023-07-03T10:51:14.938Z,5.18
2023-07-03T10:56:44.485Z,5.22
2023-07-03T11:02:13.634Z,5.57
2023-07-03T11:07:20.637Z,5.20
2023-07-03T11:12:40.454Z,5.03
2023-07-03T11:23:29.374Z,5.72
2023-07-03T11:28:37.072Z,5.10
2023-07-03T11:44:35.196Z,5.22
2023-07-03T11:49:40.531Z,4.80
2023-07-03T11:54:43.240Z,5.13
2023-07-03T11:59:44.922Z,5.68
2023-07-03T12:04:49.553Z,4.40
2023-07-03T12:09:51.931Z,5.15
2023-07-03T12:14:58.779Z,4.53
2023-07-03T12:20:28.919Z,4.95
2023-07-03T12:25:30.839Z,5.18
2023-07-03T12:30:32.517Z,4.93
2023-07-03T12:35:36.478Z,5.03
2023-07-03T12:40:45.972Z,4.90
2023-07-03T12:45:52.688Z,4.97
2023-07-03T12:50:57.595Z,4.70
2023-07-03T12:56:04.010Z,4.30
2023-07-03T13:01:07.481Z,4.68
2023-07-03T13:06:29.072Z,5.00
2023-07-03T13:11:45.082Z,4.82
2023-07-03T13:16:49.686Z,4.65
2023-07-03T13:21:52.062Z,4.82
2023-07-03T13:26:54.651Z,5.13
2023-07-03T13:32:20.102Z,4.65
2023-07-03T13:37:26.728Z,4.95
2023-07-03T13:42:28.348Z,5.13
2023-07-03T13:47:30.294Z,4.45
2023-07-03T13:52:32.031Z,4.40
2023-07-03T13:57:33.670Z,4.57
2023-07-03T14:02:47.122Z,4.43
2023-07-03T14:07:50.035Z,4.72
2023-07-03T14:12:51.835Z,4.40
2023-07-03T14:17:54.405Z,4.28
2023-07-03T14:22:56.668Z,4.18
2023-07-03T14:28:00.111Z,4.20
2023-07-03T14:33:01.796Z,3.90
2023-07-03T14:38:03.461Z,4.30
2023-07-03T14:43:06.581Z,4.00
2023-07-03T14:48:10.064Z,3.88
2023-07-03T14:53:11.703Z,3.40
2023-07-03T14:58:13.924Z,4.03
2023-07-03T15:03:15.784Z,3.83
2023-07-03T15:08:17.586Z,3.80
2023-07-03T15:13:19.609Z,3.78
2023-07-03T15:18:22.922Z,3.65
2023-07-03T15:23:24.531Z,4.05
2023-07-03T15:28:26.155Z,2.95
2023-07-03T15:33:28.433Z,3.00
2023-07-03T15:38:31.172Z,3.10
2023-07-03T15:43:33.887Z,2.88
2023-07-03T15:48:37.033Z,3.00
2023-07-03T15:53:39.187Z,3.47
2023-07-03T15:58:43.235Z,3.08
2023-07-03T16:03:45.681Z,3.00
2023-07-03T16:08:47.397Z,3.33
2023-07-03T16:13:49.754Z,3.50
2023-07-03T16:18:54.233Z,3.25
2023-07-03T16:23:57.343Z,3.22
2023-07-03T16:28:59.021Z,2.95
2023-07-03T16:34:01.937Z,2.97
2023-07-03T16:39:05.516Z,2.60
2023-07-03T16:44:07.256Z,3.00
2023-07-03T16:49:09.104Z,2.75
2023-07-03T16:54:10.765Z,2.70
2023-07-03T16:59:12.376Z,3.10
2023-07-03T17:04:13.975Z,2.97
2023-07-03T17:09:19.412Z,2.92
2023-07-03T17:14:21.081Z,3.20
2023-07-03T17:19:22.726Z,3.13
2023-07-03T17:24:24.387Z,2.97
2023-07-03T17:29:27.800Z,2.80
2023-07-03T17:34:29.444Z,2.85
2023-07-03T17:39:31.164Z,3.22
2023-07-03T17:44:32.795Z,2.78
2023-07-03T17:49:34.611Z,2.65
2023-07-03T17:54:37.267Z,3.03
2023-07-03T17:59:38.847Z,3.13
2023-07-03T18:04:40.476Z,3.03
2023-07-03T18:09:43.556Z,2.83
2023-07-03T18:14:45.418Z,2.70
2023-07-03T18:19:47.021Z,3.20
2023-07-03T18:24:48.638Z,2.90
2023-07-03T18:29:50.364Z,2.92
2023-07-03T18:34:52.118Z,2.97
2023-07-03T18:39:56.520Z,3.17
2023-07-03T18:44:58.305Z,2.83
2023-07-03T18:49:59.999Z,3.20
2023-07-03T18:55:01.898Z,3.25
2023-07-03T19:00:05.378Z,3.03
2023-07-03T19:05:07.557Z,2.92
2023-07-03T19:10:17.834Z,3.72
2023-07-03T19:15:20.534Z,2.60
2023-07-03T19:20:22.528Z,3.00
2023-07-03T19:25:24.896Z,2.88
2023-07-03T19:30:26.948Z,3.20
2023-07-03T19:35:28.561Z,3.08
2023-07-03T19:40:30.263Z,3.22
2023-07-03T19:45:33.627Z,3.28
2023-07-03T19:50:37.994Z,2.75
2023-07-03T19:55:39.774Z,2.95
2023-07-03T20:00:41.439Z,3.20
2023-07-03T20:05:46.481Z,3.15
2023-07-03T20:10:58.597Z,3.35
2023-07-03T20:16:04.163Z,3.67
2023-07-03T20:21:07.165Z,3.45
2023-07-03T20:26:08.789Z,5.10
2023-07-03T20:31:15.418Z,6.00
2023-07-03T20:36:17.809Z,3.95
2023-07-03T20:41:20.273Z,3.67
2023-07-03T20:46:25.347Z,3.50
2023-07-03T20:51:32.792Z,3.45
2023-07-03T20:56:39.670Z,3.50
2023-07-03T21:01:41.345Z,3.95
2023-07-03T21:06:45.443Z,3.55
2023-07-03T21:11:47.651Z,3.85
2023-07-03T21:16:49.469Z,3.72
2023-07-03T21:21:51.174Z,3.65
2023-07-03T21:26:52.873Z,3.70
2023-07-03T21:31:54.558Z,3.83
2023-07-03T21:36:56.297Z,3.47
2023-07-03T21:41:58.111Z,3.63
2023-07-03T21:47:01.595Z,4.28
2023-07-03T21:52:03.366Z,3.65
2023-07-03T21:57:05.471Z,3.85
2023-07-03T22:02:07.194Z,4.47
2023-07-03T22:07:08.901Z,4.00
2023-07-03T22:12:10.700Z,3.80
2023-07-03T22:17:12.283Z,3.80
2023-07-03T22:22:14.411Z,4.18
2023-07-03T22:27:16.292Z,4.00
2023-07-03T22:32:17.903Z,4.10
2023-07-03T22:37:20.229Z,3.55
2023-07-03T22:42:21.945Z,3.58
2023-07-03T22:47:23.712Z,3.40
2023-07-03T22:52:25.484Z,3.72
2023-07-03T22:57:27.940Z,3.90
2023-07-03T23:02:32.010Z,3.53
2023-07-03T23:07:34.360Z,3.20
2023-07-03T23:12:36.367Z,3.40
2023-07-03T23:17:38.037Z,3.50
2023-07-03T23:22:40.127Z,3.70
2023-07-03T23:27:43.090Z,3.28
2023-07-03T23:32:44.779Z,3.15
2023-07-03T23:37:46.516Z,3.33
2023-07-03T23:42:48.208Z,3.78
2023-07-03T23:47:52.832Z,4.07
2023-07-03T23:52:55.136Z,3.10
2023-07-03T23:57:56.750Z,3.42
